sensor_id;sensor_type;location;lat;lon;timestamp;P1;durP1;ratioP1;P2;durP2;ratioP2
42194;SDS011;27863;49.440;11.102;2023-04-24T00:00:25;1.20;;;1.10;;
42194;SDS011;27863;49.440;11.102;2023-04-24T00:03:26;2.17;;;1.40;;
42194;SDS011;27863;49.440;11.102;2023-04-24T00:06:28;5.87;;;1.13;;
42194;SDS011;27863;49.440;11.102;2023-04-24T00:09:33;2.27;;;1.80;;
42194;SDS011;27863;49.440;11.102;2023-04-24T00:12:34;1.77;;;1.13;;
42194;SDS011;27863;49.440;11.102;2023-04-24T00:15:35;1.50;;;1.40;;
42194;SDS011;27863;49.440;11.102;2023-04-24T00:18:35;1.47;;;1.37;;
42194;SDS011;27863;49.440;11.102;2023-04-24T00:21:36;1.30;;;1.20;;
42194;SDS011;27863;49.440;11.102;2023-04-24T00:24:37;1.50;;;1.30;;
42194;SDS011;27863;49.440;11.102;2023-04-24T00:27:38;1.40;;;1.30;;
42194;SDS011;27863;49.440;11.102;2023-04-24T00:30:39;1.23;;;1.13;;
42194;SDS011;27863;49.440;11.102;2023-04-24T00:33:41;1.10;;;1.00;;
42194;SDS011;27863;49.440;11.102;2023-04-24T00:36:41;1.30;;;1.20;;
42194;SDS011;27863;49.440;11.102;2023-04-24T00:39:42;1.20;;;1.10;;
42194;SDS011;27863;49.440;11.102;2023-04-24T00:42:43;2.53;;;1.13;;
42194;SDS011;27863;49.440;11.102;2023-04-24T00:45:46;2.07;;;1.23;;
42194;SDS011;27863;49.440;11.102;2023-04-24T00:48:46;1.20;;;1.10;;
42194;SDS011;27863;49.440;11.102;2023-04-24T00:51:47;1.50;;;1.40;;
42194;SDS011;27863;49.440;11.102;2023-04-24T00:54:49;1.63;;;1.10;;
42194;SDS011;27863;49.440;11.102;2023-04-24T00:57:50;1.90;;;1.30;;
42194;SDS011;27863;49.440;11.102;2023-04-24T01:00:51;2.43;;;1.17;;
42194;SDS011;27863;49.440;11.102;2023-04-24T01:03:53;1.30;;;1.20;;
42194;SDS011;27863;49.440;11.102;2023-04-24T01:06:54;2.97;;;1.10;;
42194;SDS011;27863;49.440;11.102;2023-04-24T01:09:55;1.33;;;1.23;;
42194;SDS011;27863;49.440;11.102;2023-04-24T01:12:56;1.20;;;1.10;;
42194;SDS011;27863;49.440;11.102;2023-04-24T01:15:56;2.73;;;1.33;;
42194;SDS011;27863;49.440;11.102;2023-04-24T01:19:01;1.33;;;1.23;;
42194;SDS011;27863;49.440;11.102;2023-04-24T01:22:02;1.80;;;1.47;;
42194;SDS011;27863;49.440;11.102;2023-04-24T01:25:03;1.23;;;1.13;;
42194;SDS011;27863;49.440;11.102;2023-04-24T01:28:05;1.80;;;1.13;;
42194;SDS011;27863;49.440;11.102;2023-04-24T01:31:05;0.97;;;0.97;;
42194;SDS011;27863;49.440;11.102;2023-04-24T01:34:06;1.03;;;0.93;;
42194;SDS011;27863;49.440;11.102;2023-04-24T01:37:08;2.10;;;1.23;;
42194;SDS011;27863;49.440;11.102;2023-04-24T01:40:08;1.47;;;1.37;;
42194;SDS011;27863;49.440;11.102;2023-04-24T01:43:09;1.30;;;1.20;;
42194;SDS011;27863;49.440;11.102;2023-04-24T01:46:10;1.10;;;1.00;;
42194;SDS011;27863;49.440;11.102;2023-04-24T01:49:10;1.27;;;1.10;;
42194;SDS011;27863;49.440;11.102;2023-04-24T01:52:12;1.53;;;1.40;;
42194;SDS011;27863;49.440;11.102;2023-04-24T01:55:13;1.63;;;1.07;;
42194;SDS011;27863;49.440;11.102;2023-04-24T01:58:13;1.53;;;0.90;;
42194;SDS011;27863;49.440;11.102;2023-04-24T02:01:15;1.93;;;1.10;;
42194;SDS011;27863;49.440;11.102;2023-04-24T02:04:18;0.90;;;0.90;;
42194;SDS011;27863;49.440;11.102;2023-04-24T02:07:20;3.70;;;1.10;;
42194;SDS011;27863;49.440;11.102;2023-04-24T02:10:20;1.53;;;1.10;;
42194;SDS011;27863;49.440;11.102;2023-04-24T02:13:21;2.03;;;0.90;;
42194;SDS011;27863;49.440;11.102;2023-04-24T02:16:21;0.80;;;0.80;;
42194;SDS011;27863;49.440;11.102;2023-04-24T02:19:22;1.07;;;0.80;;
42194;SDS011;27863;49.440;11.102;2023-04-24T02:22:26;3.57;;;1.00;;
42194;SDS011;27863;49.440;11.102;2023-04-24T02:25:28;1.10;;;1.10;;
42194;SDS011;27863;49.440;11.102;2023-04-24T02:28:29;3.70;;;0.87;;
42194;SDS011;27863;49.440;11.102;2023-04-24T02:31:30;1.73;;;0.90;;
42194;SDS011;27863;49.440;11.102;2023-04-24T02:34:30;1.03;;;0.90;;
42194;SDS011;27863;49.440;11.102;2023-04-24T02:37:33;1.17;;;0.93;;
42194;SDS011;27863;49.440;11.102;2023-04-24T02:40:34;2.07;;;0.93;;
42194;SDS011;27863;49.440;11.102;2023-04-24T02:43:34;1.20;;;1.10;;
42194;SDS011;27863;49.440;11.102;2023-04-24T02:46:35;1.20;;;1.10;;
42194;SDS011;27863;49.440;11.102;2023-04-24T02:49:37;1.10;;;0.80;;
42194;SDS011;27863;49.440;11.102;2023-04-24T02:52:39;1.10;;;1.00;;
42194;SDS011;27863;49.440;11.102;2023-04-24T02:55:40;1.03;;;0.90;;
42194;SDS011;27863;49.440;11.102;2023-04-24T02:58:40;1.23;;;1.10;;
42194;SDS011;27863;49.440;11.102;2023-04-24T03:01:42;1.20;;;1.10;;
42194;SDS011;27863;49.440;11.102;2023-04-24T03:04:43;1.20;;;1.10;;
42194;SDS011;27863;49.440;11.102;2023-04-24T03:07:43;1.13;;;1.10;;
42194;SDS011;27863;49.440;11.102;2023-04-24T03:10:43;1.10;;;1.00;;
42194;SDS011;27863;49.440;11.102;2023-04-24T03:13:44;1.77;;;1.30;;
42194;SDS011;27863;49.440;11.102;2023-04-24T03:16:45;1.27;;;1.10;;
42194;SDS011;27863;49.440;11.102;2023-04-24T03:19:45;1.20;;;1.10;;
42194;SDS011;27863;49.440;11.102;2023-04-24T03:22:46;1.37;;;1.20;;
42194;SDS011;27863;49.440;11.102;2023-04-24T03:25:47;3.50;;;1.23;;
42194;SDS011;27863;49.440;11.102;2023-04-24T03:28:52;1.13;;;1.00;;
42194;SDS011;27863;49.440;11.102;2023-04-24T03:31:52;8.00;;;1.17;;
42194;SDS011;27863;49.440;11.102;2023-04-24T03:34:54;1.37;;;1.27;;
42194;SDS011;27863;49.440;11.102;2023-04-24T03:37:54;4.87;;;1.40;;
42194;SDS011;27863;49.440;11.102;2023-04-24T03:41:14;1.13;;;1.03;;
42194;SDS011;27863;49.440;11.102;2023-04-24T03:44:20;3.40;;;1.10;;
42194;SDS011;27863;49.440;11.102;2023-04-24T03:47:21;1.27;;;1.17;;
42194;SDS011;27863;49.440;11.102;2023-04-24T03:50:22;1.50;;;1.40;;
42194;SDS011;27863;49.440;11.102;2023-04-24T03:53:23;1.87;;;1.37;;
42194;SDS011;27863;49.440;11.102;2023-04-24T03:56:24;1.43;;;1.17;;
42194;SDS011;27863;49.440;11.102;2023-04-24T03:59:26;0.80;;;0.70;;
42194;SDS011;27863;49.440;11.102;2023-04-24T04:02:50;1.40;;;1.30;;
42194;SDS011;27863;49.440;11.102;2023-04-24T04:05:51;1.07;;;1.00;;
42194;SDS011;27863;49.440;11.102;2023-04-24T04:08:53;1.30;;;1.10;;
42194;SDS011;27863;49.440;11.102;2023-04-24T04:11:53;1.27;;;1.17;;
42194;SDS011;27863;49.440;11.102;2023-04-24T04:14:55;1.10;;;1.00;;
42194;SDS011;27863;49.440;11.102;2023-04-24T04:17:57;1.20;;;1.10;;
42194;SDS011;27863;49.440;11.102;2023-04-24T04:20:58;1.50;;;1.30;;
42194;SDS011;27863;49.440;11.102;2023-04-24T04:23:59;1.93;;;1.20;;
42194;SDS011;27863;49.440;11.102;2023-04-24T04:27:06;2.50;;;1.17;;
42194;SDS011;27863;49.440;11.102;2023-04-24T04:30:13;1.30;;;1.20;;
42194;SDS011;27863;49.440;11.102;2023-04-24T04:33:22;3.03;;;1.40;;
42194;SDS011;27863;49.440;11.102;2023-04-24T04:36:22;1.17;;;1.03;;
42194;SDS011;27863;49.440;11.102;2023-04-24T04:39:29;1.23;;;1.13;;
42194;SDS011;27863;49.440;11.102;2023-04-24T04:42:35;1.20;;;1.10;;
42194;SDS011;27863;49.440;11.102;2023-04-24T04:45:36;1.80;;;1.47;;
42194;SDS011;27863;49.440;11.102;2023-04-24T04:49:11;1.60;;;1.50;;
42194;SDS011;27863;49.440;11.102;2023-04-24T04:52:12;1.93;;;1.40;;
42194;SDS011;27863;49.440;11.102;2023-04-24T04:55:13;1.77;;;1.67;;
42194;SDS011;27863;49.440;11.102;2023-04-24T04:58:36;1.77;;;1.67;;
42194;SDS011;27863;49.440;11.102;2023-04-24T05:01:39;2.17;;;1.97;;
42194;SDS011;27863;49.440;11.102;2023-04-24T05:04:42;4.47;;;1.77;;
42194;SDS011;27863;49.440;11.102;2023-04-24T05:07:43;1.73;;;1.63;;
42194;SDS011;27863;49.440;11.102;2023-04-24T05:10:44;1.80;;;1.70;;
42194;SDS011;27863;49.440;11.102;2023-04-24T05:13:45;3.80;;;2.17;;
42194;SDS011;27863;49.440;11.102;2023-04-24T05:16:51;2.13;;;1.93;;
42194;SDS011;27863;49.440;11.102;2023-04-24T05:19:55;1.80;;;1.70;;
42194;SDS011;27863;49.440;11.102;2023-04-24T05:22:56;2.80;;;2.60;;
42194;SDS011;27863;49.440;11.102;2023-04-24T05:25:59;2.23;;;2.00;;
42194;SDS011;27863;49.440;11.102;2023-04-24T05:29:01;2.40;;;2.20;;
42194;SDS011;27863;49.440;11.102;2023-04-24T05:32:02;2.17;;;1.97;;
42194;SDS011;27863;49.440;11.102;2023-04-24T05:35:04;3.63;;;1.93;;
42194;SDS011;27863;49.440;11.102;2023-04-24T05:38:07;2.67;;;1.80;;
42194;SDS011;27863;49.440;11.102;2023-04-24T05:41:10;1.80;;;1.40;;
42194;SDS011;27863;49.440;11.102;2023-04-24T05:44:12;2.67;;;2.00;;
42194;SDS011;27863;49.440;11.102;2023-04-24T05:47:12;3.77;;;1.83;;
42194;SDS011;27863;49.440;11.102;2023-04-24T05:50:13;3.23;;;1.80;;
42194;SDS011;27863;49.440;11.102;2023-04-24T05:53:14;3.70;;;2.00;;
42194;SDS011;27863;49.440;11.102;2023-04-24T05:56:17;5.57;;;1.70;;
42194;SDS011;27863;49.440;11.102;2023-04-24T05:59:19;2.33;;;1.77;;
42194;SDS011;27863;49.440;11.102;2023-04-24T06:02:20;3.20;;;1.97;;
42194;SDS011;27863;49.440;11.102;2023-04-24T06:05:20;2.07;;;1.70;;
42194;SDS011;27863;49.440;11.102;2023-04-24T06:08:21;3.23;;;1.60;;
42194;SDS011;27863;49.440;11.102;2023-04-24T06:11:23;3.07;;;1.90;;
42194;SDS011;27863;49.440;11.102;2023-04-24T06:14:25;6.40;;;1.40;;
42194;SDS011;27863;49.440;11.102;2023-04-24T06:17:45;2.40;;;1.60;;
42194;SDS011;27863;49.440;11.102;2023-04-24T06:20:51;3.13;;;1.50;;
42194;SDS011;27863;49.440;11.102;2023-04-24T06:23:51;1.60;;;1.50;;
42194;SDS011;27863;49.440;11.102;2023-04-24T06:26:52;1.73;;;1.63;;
42194;SDS011;27863;49.440;11.102;2023-04-24T06:29:52;1.57;;;1.47;;
42194;SDS011;27863;49.440;11.102;2023-04-24T06:32:54;2.03;;;1.50;;
42194;SDS011;27863;49.440;11.102;2023-04-24T06:35:56;2.93;;;1.70;;
42194;SDS011;27863;49.440;11.102;2023-04-24T06:38:56;2.80;;;1.77;;
42194;SDS011;27863;49.440;11.102;2023-04-24T06:41:59;1.57;;;1.47;;
42194;SDS011;27863;49.440;11.102;2023-04-24T06:44:59;1.80;;;1.50;;
42194;SDS011;27863;49.440;11.102;2023-04-24T06:48:00;1.83;;;1.30;;
42194;SDS011;27863;49.440;11.102;2023-04-24T06:51:01;2.07;;;1.20;;
42194;SDS011;27863;49.440;11.102;2023-04-24T06:54:01;2.13;;;1.47;;
42194;SDS011;27863;49.440;11.102;2023-04-24T06:57:02;1.33;;;1.23;;
42194;SDS011;27863;49.440;11.102;2023-04-24T07:00:03;1.93;;;0.90;;
42194;SDS011;27863;49.440;11.102;2023-04-24T07:03:05;0.80;;;0.77;;
42194;SDS011;27863;49.440;11.102;2023-04-24T07:06:06;1.10;;;1.00;;
42194;SDS011;27863;49.440;11.102;2023-04-24T07:09:07;0.87;;;0.83;;
42194;SDS011;27863;49.440;11.102;2023-04-24T07:12:09;0.97;;;0.87;;
42194;SDS011;27863;49.440;11.102;2023-04-24T07:15:13;0.60;;;0.60;;
42194;SDS011;27863;49.440;11.102;2023-04-24T07:18:14;1.33;;;1.00;;
42194;SDS011;27863;49.440;11.102;2023-04-24T07:21:14;0.50;;;0.50;;
42194;SDS011;27863;49.440;11.102;2023-04-24T07:24:15;2.53;;;0.70;;
42194;SDS011;27863;49.440;11.102;2023-04-24T07:27:16;1.10;;;0.60;;
42194;SDS011;27863;49.440;11.102;2023-04-24T07:30:16;1.00;;;1.00;;
42194;SDS011;27863;49.440;11.102;2023-04-24T07:33:17;1.00;;;0.90;;
42194;SDS011;27863;49.440;11.102;2023-04-24T07:36:20;1.10;;;1.00;;
42194;SDS011;27863;49.440;11.102;2023-04-24T07:39:21;1.70;;;0.80;;
42194;SDS011;27863;49.440;11.102;2023-04-24T07:42:21;1.20;;;1.00;;
42194;SDS011;27863;49.440;11.102;2023-04-24T07:45:22;0.97;;;0.90;;
42194;SDS011;27863;49.440;11.102;2023-04-24T07:48:24;1.47;;;1.17;;
42194;SDS011;27863;49.440;11.102;2023-04-24T07:51:26;0.90;;;0.90;;
42194;SDS011;27863;49.440;11.102;2023-04-24T07:54:27;1.63;;;1.07;;
42194;SDS011;27863;49.440;11.102;2023-04-24T07:57:30;0.97;;;0.90;;
42194;SDS011;27863;49.440;11.102;2023-04-24T08:00:31;2.93;;;1.80;;
42194;SDS011;27863;49.440;11.102;2023-04-24T08:03:31;1.20;;;1.10;;
42194;SDS011;27863;49.440;11.102;2023-04-24T08:06:32;2.28;;;1.20;;
42194;SDS011;27863;49.440;11.102;2023-04-24T08:09:33;0.98;;;0.88;;
42194;SDS011;27863;49.440;11.102;2023-04-24T08:12:33;1.02;;;0.98;;
42194;SDS011;27863;49.440;11.102;2023-04-24T08:15:34;1.38;;;1.27;;
42194;SDS011;27863;49.440;11.102;2023-04-24T08:18:34;1.25;;;1.15;;
42194;SDS011;27863;49.440;11.102;2023-04-24T08:21:37;1.00;;;0.98;;
42194;SDS011;27863;49.440;11.102;2023-04-24T08:24:37;1.40;;;1.30;;
42194;SDS011;27863;49.440;11.102;2023-04-24T08:27:38;6.47;;;1.23;;
42194;SDS011;27863;49.440;11.102;2023-04-24T08:30:38;2.13;;;1.20;;
42194;SDS011;27863;49.440;11.102;2023-04-24T08:33:39;1.60;;;1.50;;
42194;SDS011;27863;49.440;11.102;2023-04-24T08:36:41;1.40;;;1.30;;
42194;SDS011;27863;49.440;11.102;2023-04-24T08:39:41;1.40;;;1.30;;
42194;SDS011;27863;49.440;11.102;2023-04-24T08:42:42;1.65;;;1.55;;
42194;SDS011;27863;49.440;11.102;2023-04-24T08:45:44;1.65;;;1.55;;
42194;SDS011;27863;49.440;11.102;2023-04-24T08:48:46;1.38;;;1.27;;
42194;SDS011;27863;49.440;11.102;2023-04-24T08:51:47;2.70;;;1.58;;
42194;SDS011;27863;49.440;11.102;2023-04-24T08:54:50;1.65;;;1.55;;
42194;SDS011;27863;49.440;11.102;2023-04-24T08:57:52;2.25;;;1.70;;
42194;SDS011;27863;49.440;11.102;2023-04-24T09:00:56;1.60;;;1.50;;
42194;SDS011;27863;49.440;11.102;2023-04-24T09:04:00;2.25;;;1.80;;
42194;SDS011;27863;49.440;11.102;2023-04-24T09:07:03;1.85;;;1.50;;
42194;SDS011;27863;49.440;11.102;2023-04-24T09:10:07;2.45;;;1.90;;
42194;SDS011;27863;49.440;11.102;2023-04-24T09:13:08;1.88;;;1.38;;
42194;SDS011;27863;49.440;11.102;2023-04-24T09:16:10;1.52;;;1.30;;
42194;SDS011;27863;49.440;11.102;2023-04-24T09:19:12;2.30;;;1.60;;
42194;SDS011;27863;49.440;11.102;2023-04-24T09:22:13;2.70;;;1.48;;
42194;SDS011;27863;49.440;11.102;2023-04-24T09:25:14;2.05;;;1.70;;
42194;SDS011;27863;49.440;11.102;2023-04-24T09:28:15;2.63;;;1.58;;
42194;SDS011;27863;49.440;11.102;2023-04-24T09:31:16;1.70;;;1.60;;
42194;SDS011;27863;49.440;11.102;2023-04-24T09:34:22;3.40;;;2.35;;
42194;SDS011;27863;49.440;11.102;2023-04-24T09:37:29;1.45;;;1.35;;
42194;SDS011;27863;49.440;11.102;2023-04-24T09:40:30;2.03;;;1.90;;
42194;SDS011;27863;49.440;11.102;2023-04-24T09:43:35;1.40;;;1.27;;
42194;SDS011;27863;49.440;11.102;2023-04-24T09:46:35;1.48;;;1.38;;
42194;SDS011;27863;49.440;11.102;2023-04-24T09:49:36;2.53;;;1.30;;
42194;SDS011;27863;49.440;11.102;2023-04-24T09:52:39;2.10;;;1.25;;
42194;SDS011;27863;49.440;11.102;2023-04-24T09:55:45;1.65;;;1.30;;
42194;SDS011;27863;49.440;11.102;2023-04-24T09:58:46;2.00;;;1.27;;
42194;SDS011;27863;49.440;11.102;2023-04-24T10:01:46;1.67;;;0.90;;
42194;SDS011;27863;49.440;11.102;2023-04-24T10:04:55;2.17;;;0.88;;
42194;SDS011;27863;49.440;11.102;2023-04-24T10:07:57;1.58;;;1.33;;
42194;SDS011;27863;49.440;11.102;2023-04-24T10:11:03;1.05;;;0.82;;
42194;SDS011;27863;49.440;11.102;2023-04-24T10:14:03;1.67;;;1.20;;
42194;SDS011;27863;49.440;11.102;2023-04-24T10:17:04;1.98;;;0.93;;
42194;SDS011;27863;49.440;11.102;2023-04-24T10:20:06;0.90;;;0.90;;
42194;SDS011;27863;49.440;11.102;2023-04-24T10:23:08;0.60;;;0.60;;
42194;SDS011;27863;49.440;11.102;2023-04-24T10:26:09;0.90;;;0.88;;
42194;SDS011;27863;49.440;11.102;2023-04-24T10:29:12;1.60;;;0.73;;
42194;SDS011;27863;49.440;11.102;2023-04-24T10:32:14;2.17;;;0.80;;
42194;SDS011;27863;49.440;11.102;2023-04-24T10:35:15;0.70;;;0.70;;
42194;SDS011;27863;49.440;11.102;2023-04-24T10:38:17;0.80;;;0.80;;
42194;SDS011;27863;49.440;11.102;2023-04-24T10:41:24;0.85;;;0.70;;
42194;SDS011;27863;49.440;11.102;2023-04-24T10:44:27;1.08;;;0.90;;
42194;SDS011;27863;49.440;11.102;2023-04-24T10:47:39;0.70;;;0.65;;
42194;SDS011;27863;49.440;11.102;2023-04-24T10:50:52;0.80;;;0.77;;
42194;SDS011;27863;49.440;11.102;2023-04-24T10:53:55;1.10;;;0.98;;
42194;SDS011;27863;49.440;11.102;2023-04-24T11:00:28;2.15;;;0.95;;
42194;SDS011;27863;49.440;11.102;2023-04-24T11:03:30;1.65;;;1.48;;
42194;SDS011;27863;49.440;11.102;2023-04-24T11:06:32;1.45;;;0.90;;
42194;SDS011;27863;49.440;11.102;2023-04-24T11:09:36;1.35;;;0.90;;
42194;SDS011;27863;49.440;11.102;2023-04-24T11:12:36;0.77;;;0.70;;
42194;SDS011;27863;49.440;11.102;2023-04-24T11:15:38;0.80;;;0.80;;
42194;SDS011;27863;49.440;11.102;2023-04-24T11:18:42;0.60;;;0.60;;
42194;SDS011;27863;49.440;11.102;2023-04-24T11:22:00;1.00;;;0.57;;
42194;SDS011;27863;49.440;11.102;2023-04-24T11:25:05;2.55;;;1.05;;
42194;SDS011;27863;49.440;11.102;2023-04-24T11:28:06;0.73;;;0.73;;
42194;SDS011;27863;49.440;11.102;2023-04-24T11:34:44;2.40;;;1.17;;
42194;SDS011;27863;49.440;11.102;2023-04-24T11:37:48;1.00;;;0.90;;
42194;SDS011;27863;49.440;11.102;2023-04-24T11:40:49;0.90;;;0.90;;
42194;SDS011;27863;49.440;11.102;2023-04-24T11:43:50;1.27;;;1.17;;
42194;SDS011;27863;49.440;11.102;2023-04-24T11:46:50;1.30;;;1.20;;
42194;SDS011;27863;49.440;11.102;2023-04-24T11:49:51;1.10;;;1.10;;
42194;SDS011;27863;49.440;11.102;2023-04-24T11:52:51;1.25;;;1.10;;
42194;SDS011;27863;49.440;11.102;2023-04-24T11:55:53;1.05;;;1.00;;
42194;SDS011;27863;49.440;11.102;2023-04-24T11:58:54;1.02;;;1.02;;
42194;SDS011;27863;49.440;11.102;2023-04-24T12:01:54;2.20;;;1.25;;
42194;SDS011;27863;49.440;11.102;2023-04-24T12:04:55;0.70;;;0.70;;
42194;SDS011;27863;49.440;11.102;2023-04-24T12:07:56;1.15;;;1.05;;
42194;SDS011;27863;49.440;11.102;2023-04-24T12:10:56;1.25;;;1.13;;
42194;SDS011;27863;49.440;11.102;2023-04-24T12:13:58;0.80;;;0.80;;
42194;SDS011;27863;49.440;11.102;2023-04-24T12:17:10;1.20;;;1.10;;
42194;SDS011;27863;49.440;11.102;2023-04-24T12:20:11;1.48;;;1.30;;
42194;SDS011;27863;49.440;11.102;2023-04-24T12:23:12;1.45;;;1.35;;
42194;SDS011;27863;49.440;11.102;2023-04-24T12:26:17;7.03;;;1.25;;
42194;SDS011;27863;49.440;11.102;2023-04-24T12:29:22;1.65;;;1.55;;
42194;SDS011;27863;49.440;11.102;2023-04-24T12:32:23;1.15;;;1.05;;
42194;SDS011;27863;49.440;11.102;2023-04-24T12:35:27;1.10;;;1.00;;
42194;SDS011;27863;49.440;11.102;2023-04-24T12:38:29;2.38;;;1.05;;
42194;SDS011;27863;49.440;11.102;2023-04-24T12:41:48;2.60;;;1.38;;
42194;SDS011;27863;49.440;11.102;2023-04-24T12:44:55;0.65;;;0.60;;
42194;SDS011;27863;49.440;11.102;2023-04-24T12:47:58;0.88;;;0.88;;
42194;SDS011;27863;49.440;11.102;2023-04-24T12:50:59;1.05;;;1.05;;
42194;SDS011;27863;49.440;11.102;2023-04-24T12:54:02;1.83;;;1.10;;
42194;SDS011;27863;49.440;11.102;2023-04-24T12:57:03;1.23;;;1.08;;
42194;SDS011;27863;49.440;11.102;2023-04-24T13:00:04;2.10;;;0.88;;
42194;SDS011;27863;49.440;11.102;2023-04-24T13:03:06;1.10;;;1.00;;
42194;SDS011;27863;49.440;11.102;2023-04-24T13:06:08;1.63;;;1.00;;
42194;SDS011;27863;49.440;11.102;2023-04-24T13:09:08;1.15;;;1.10;;
42194;SDS011;27863;49.440;11.102;2023-04-24T13:12:10;0.80;;;0.80;;
42194;SDS011;27863;49.440;11.102;2023-04-24T13:15:11;2.20;;;1.10;;
42194;SDS011;27863;49.440;11.102;2023-04-24T13:18:12;1.40;;;1.20;;
42194;SDS011;27863;49.440;11.102;2023-04-24T13:21:12;1.23;;;1.20;;
42194;SDS011;27863;49.440;11.102;2023-04-24T13:24:13;2.15;;;1.23;;
42194;SDS011;27863;49.440;11.102;2023-04-24T13:27:13;1.50;;;1.40;;
42194;SDS011;27863;49.440;11.102;2023-04-24T13:30:14;1.55;;;1.00;;
42194;SDS011;27863;49.440;11.102;2023-04-24T13:33:17;1.20;;;1.10;;
42194;SDS011;27863;49.440;11.102;2023-04-24T13:36:17;1.95;;;1.25;;
42194;SDS011;27863;49.440;11.102;2023-04-24T13:39:18;1.50;;;1.40;;
42194;SDS011;27863;49.440;11.102;2023-04-24T13:42:18;1.60;;;1.23;;
42194;SDS011;27863;49.440;11.102;2023-04-24T13:45:20;2.13;;;1.30;;
42194;SDS011;27863;49.440;11.102;2023-04-24T13:48:20;1.30;;;1.20;;
42194;SDS011;27863;49.440;11.102;2023-04-24T13:51:21;1.30;;;1.20;;
42194;SDS011;27863;49.440;11.102;2023-04-24T13:54:22;1.50;;;1.40;;
42194;SDS011;27863;49.440;11.102;2023-04-24T13:57:23;1.27;;;1.17;;
42194;SDS011;27863;49.440;11.102;2023-04-24T14:00:24;2.03;;;1.70;;
42194;SDS011;27863;49.440;11.102;2023-04-24T14:03:24;1.50;;;1.40;;
42194;SDS011;27863;49.440;11.102;2023-04-24T14:06:25;1.70;;;1.60;;
42194;SDS011;27863;49.440;11.102;2023-04-24T14:09:26;3.50;;;1.37;;
42194;SDS011;27863;49.440;11.102;2023-04-24T14:12:27;3.13;;;1.43;;
42194;SDS011;27863;49.440;11.102;2023-04-24T14:15:27;2.67;;;1.63;;
42194;SDS011;27863;49.440;11.102;2023-04-24T14:18:28;2.70;;;1.30;;
42194;SDS011;27863;49.440;11.102;2023-04-24T14:21:30;1.40;;;1.30;;
42194;SDS011;27863;49.440;11.102;2023-04-24T14:24:30;1.77;;;1.67;;
42194;SDS011;27863;49.440;11.102;2023-04-24T14:27:31;1.93;;;1.63;;
42194;SDS011;27863;49.440;11.102;2023-04-24T14:30:34;1.73;;;1.63;;
42194;SDS011;27863;49.440;11.102;2023-04-24T14:33:37;2.47;;;1.50;;
42194;SDS011;27863;49.440;11.102;2023-04-24T14:36:37;1.83;;;1.73;;
42194;SDS011;27863;49.440;11.102;2023-04-24T14:39:38;2.47;;;2.03;;
42194;SDS011;27863;49.440;11.102;2023-04-24T14:42:38;2.53;;;1.42;;
42194;SDS011;27863;49.440;11.102;2023-04-24T14:45:40;1.55;;;1.45;;
42194;SDS011;27863;49.440;11.102;2023-04-24T14:48:43;1.35;;;1.20;;
42194;SDS011;27863;49.440;11.102;2023-04-24T14:51:43;1.38;;;1.27;;
42194;SDS011;27863;49.440;11.102;2023-04-24T14:54:44;1.63;;;1.52;;
42194;SDS011;27863;49.440;11.102;2023-04-24T14:57:45;1.53;;;1.43;;
42194;SDS011;27863;49.440;11.102;2023-04-24T15:00:46;1.33;;;1.23;;
42194;SDS011;27863;49.440;11.102;2023-04-24T15:03:49;1.50;;;1.10;;
42194;SDS011;27863;49.440;11.102;2023-04-24T15:06:50;0.70;;;0.70;;
42194;SDS011;27863;49.440;11.102;2023-04-24T15:09:50;0.87;;;0.87;;
42194;SDS011;27863;49.440;11.102;2023-04-24T15:12:52;1.60;;;1.20;;
42194;SDS011;27863;49.440;11.102;2023-04-24T15:15:54;1.40;;;1.20;;
42194;SDS011;27863;49.440;11.102;2023-04-24T15:18:55;1.40;;;1.30;;
42194;SDS011;27863;49.440;11.102;2023-04-24T15:21:57;1.57;;;1.20;;
42194;SDS011;27863;49.440;11.102;2023-04-24T15:24:58;4.40;;;1.50;;
42194;SDS011;27863;49.440;11.102;2023-04-24T15:27:58;2.40;;;1.80;;
42194;SDS011;27863;49.440;11.102;2023-04-24T15:31:00;2.17;;;1.97;;
42194;SDS011;27863;49.440;11.102;2023-04-24T15:34:00;2.50;;;1.83;;
42194;SDS011;27863;49.440;11.102;2023-04-24T15:37:01;2.20;;;2.00;;
42194;SDS011;27863;49.440;11.102;2023-04-24T15:40:02;1.87;;;1.77;;
42194;SDS011;27863;49.440;11.102;2023-04-24T15:43:05;3.13;;;1.93;;
42194;SDS011;27863;49.440;11.102;2023-04-24T15:46:05;2.10;;;1.90;;
42194;SDS011;27863;49.440;11.102;2023-04-24T15:49:07;2.43;;;2.23;;
42194;SDS011;27863;49.440;11.102;2023-04-24T15:52:07;2.13;;;2.00;;
42194;SDS011;27863;49.440;11.102;2023-04-24T15:55:10;2.43;;;1.67;;
42194;SDS011;27863;49.440;11.102;2023-04-24T15:58:11;2.17;;;1.97;;
42194;SDS011;27863;49.440;11.102;2023-04-24T16:01:11;2.30;;;2.10;;
42194;SDS011;27863;49.440;11.102;2023-04-24T16:04:11;2.17;;;1.97;;
42194;SDS011;27863;49.440;11.102;2023-04-24T16:07:12;2.03;;;1.83;;
42194;SDS011;27863;49.440;11.102;2023-04-24T16:10:13;2.07;;;1.97;;
42194;SDS011;27863;49.440;11.102;2023-04-24T16:13:14;1.67;;;1.57;;
42194;SDS011;27863;49.440;11.102;2023-04-24T16:16:15;1.93;;;1.80;;
42194;SDS011;27863;49.440;11.102;2023-04-24T16:19:17;2.40;;;2.03;;
42194;SDS011;27863;49.440;11.102;2023-04-24T16:22:18;2.73;;;2.10;;
42194;SDS011;27863;49.440;11.102;2023-04-24T16:25:19;2.97;;;2.00;;
42194;SDS011;27863;49.440;11.102;2023-04-24T16:28:19;2.20;;;1.97;;
42194;SDS011;27863;49.440;11.102;2023-04-24T16:31:20;1.93;;;1.83;;
42194;SDS011;27863;49.440;11.102;2023-04-24T16:34:21;3.57;;;1.83;;
42194;SDS011;27863;49.440;11.102;2023-04-24T16:37:22;1.70;;;1.60;;
42194;SDS011;27863;49.440;11.102;2023-04-24T16:40:22;3.13;;;2.50;;
42194;SDS011;27863;49.440;11.102;2023-04-24T16:43:23;2.30;;;2.10;;
42194;SDS011;27863;49.440;11.102;2023-04-24T16:46:24;2.10;;;2.00;;
42194;SDS011;27863;49.440;11.102;2023-04-24T16:49:26;3.33;;;2.33;;
42194;SDS011;27863;49.440;11.102;2023-04-24T16:52:30;2.53;;;2.10;;
42194;SDS011;27863;49.440;11.102;2023-04-24T16:55:30;2.00;;;1.90;;
42194;SDS011;27863;49.440;11.102;2023-04-24T16:58:32;2.30;;;2.10;;
42194;SDS011;27863;49.440;11.102;2023-04-24T17:01:32;1.80;;;1.70;;
42194;SDS011;27863;49.440;11.102;2023-04-24T17:04:33;2.10;;;2.00;;
42194;SDS011;27863;49.440;11.102;2023-04-24T17:07:35;2.53;;;2.33;;
42194;SDS011;27863;49.440;11.102;2023-04-24T17:10:38;2.50;;;2.30;;
42194;SDS011;27863;49.440;11.102;2023-04-24T17:13:41;1.83;;;1.73;;
42194;SDS011;27863;49.440;11.102;2023-04-24T17:16:42;3.33;;;2.50;;
42194;SDS011;27863;49.440;11.102;2023-04-24T17:19:44;2.30;;;2.10;;
42194;SDS011;27863;49.440;11.102;2023-04-24T17:22:45;3.70;;;2.33;;
42194;SDS011;27863;49.440;11.102;2023-04-24T17:25:47;3.67;;;2.50;;
42194;SDS011;27863;49.440;11.102;2023-04-24T17:28:49;3.60;;;3.30;;
42194;SDS011;27863;49.440;11.102;2023-04-24T17:31:54;3.53;;;2.87;;
42194;SDS011;27863;49.440;11.102;2023-04-24T17:34:55;2.90;;;2.70;;
42194;SDS011;27863;49.440;11.102;2023-04-24T17:37:55;2.70;;;2.50;;
42194;SDS011;27863;49.440;11.102;2023-04-24T17:40:56;4.23;;;2.70;;
42194;SDS011;27863;49.440;11.102;2023-04-24T17:43:57;3.77;;;2.43;;
42194;SDS011;27863;49.440;11.102;2023-04-24T17:46:57;2.33;;;2.13;;
42194;SDS011;27863;49.440;11.102;2023-04-24T17:49:58;3.03;;;2.77;;
42194;SDS011;27863;49.440;11.102;2023-04-24T17:52:59;1.70;;;1.60;;
42194;SDS011;27863;49.440;11.102;2023-04-24T17:55:59;1.33;;;1.23;;
42194;SDS011;27863;49.440;11.102;2023-04-24T17:59:02;1.73;;;1.63;;
42194;SDS011;27863;49.440;11.102;2023-04-24T18:02:02;1.40;;;1.30;;
42194;SDS011;27863;49.440;11.102;2023-04-24T18:05:03;1.93;;;1.73;;